Urania, Louisiana
Current Conditions -  °F | °C
As of 9:53 AM on Wednesday 26 Nov 2014 (Local Time) from KESF Reporting Station
Clear Clear  
Wind Chill: 60°   Ceiling: Unl
Heat Index: 60°   Visibility: 10mi
Dew Point: 41°   Wind: 16mph
Humidity: 49%   Direction: 230°SW
Pressure: 30.19"   Gusts: 22mph
Location:  31.86°N, 92.3°W
Report Text: KESF 261553Z AUTO 23014G19KT 10SM CLR 16/05 A3019 RMK AO2 SLP222 T01560050
Loading
Personal Weather Stations






























Interactive Weather Map New forecast layout! Learn more

10-Day Weather Forecast

Advertisements
Track Severe Weather on mobile